Yocum, KY

3:59 AM EDT on September 02, 2014 (GMT -0400)
RAWS TRIANGLE MTN KY US | Change Station
CLOSE
Current Station
Personal Weather Station
Location: Morehead, KY
Elevation: 1359 ft
Nearby Weather Stations

Elev 1359 ft 38.18 °N, 83.41 °W | Updated 57 minutes ago

Clear
Clear
74 °F
Feels Like 75 °F
N
5
Wind Variable Wind from SW
Gusts 9.0 mph

Today
High -- | Low -- °F
--% Chance of Precip.
Yesterday
High -- | Low -- °F
Precip. -- in
7:03 AM 8:01 PM
Waxing Crescent, 49% visible
Pressure 30.01 in
Visibility 10.0 miles
Clouds Clear
Heat Index 75 °F
Dew Point 67 °F
Humidity 78%
Rainfall 0.19 in
Snow Depth Not available.
UV 0 out of 12
Pollen 9.60 out of 12
Air Quality Not available.
Flu Activity Not available.
METAR KJKL 020753Z AUTO VRB03KT 10SM CLR 23/21 A3006 RMK AO2 SLP162 T02280206

More Conditions Fewer Conditions

Pressure 30.01 in
Visibility 10.0 miles
Clouds Clear
Heat Index 75 °F
Dew Point 67 °F
Humidity 78%
Rainfall 0.19 in
Snow Depth Not available.
UV 0 out of 12
Pollen 9.60 out of 12
Air Quality Not available.
Flu Activity Not available.
METAR KJKL 020753Z AUTO VRB03KT 10SM CLR 23/21 A3006 RMK AO2 SLP162 T02280206

More Conditions Fewer Conditions

10-Day Weather Forecast

Almanac

Astronomy

Sep. 02, 2014 Rise Set
Actual Time 7:03 AM EDT 8:01 PM EDT
Civil Twilight 6:36 AM EDT 8:27 PM EDT
Nautical Twilight 6:04 AM EDT 8:59 PM EDT
Astronomical Twilight 5:31 AM EDT 9:32 PM EDT
Moon 2:40 PM EDT 12:09 AM EDT
Length of Visible Light 13h 50m
Length of Day
12h 57m
Tomorrow will be 2m 21s shorter.
Waxing Crescent, 49% of the Moon is Illuminated
Today
Waxing Crescent
Sep 2
First Quarter
Sep 8
Full
Sep 15
Last Quarter
Sep 24
New

Today's Extremes

State Highs State Lows

Community

WunderPhotos

Upload Photos

1,749,589 photos uploaded!

WunderBlogs® & News

Nearby

Snow Depth

Station Depth Elevation
No new snow has been reported.

Earthquake Activity

City Distance Mag. Time & Date
No recent earthquake activity has been reported nearby.
Minimum magnitude displayed is 2.5.

Coastal Water Temperatures

Place Temperature
No Stations Reporting

Nearby Weather Stations